createdAt,value
2018-08-25T00:00:53.501Z,98.80
2018-08-25T00:03:21.164Z,97.70
2018-08-25T00:05:49.598Z,97.80
2018-08-25T00:08:17.207Z,97.80
2018-08-25T00:10:44.810Z,98.00
2018-08-25T00:13:12.490Z,98.10
2018-08-25T00:15:40.255Z,98.20
2018-08-25T00:18:09.382Z,98.30
2018-08-25T00:20:36.995Z,98.60
2018-08-25T00:23:04.731Z,98.30
2018-08-25T00:25:32.365Z,98.50
2018-08-25T00:27:59.994Z,98.50
2018-08-25T00:30:33.091Z,99.00
2018-08-25T00:33:00.803Z,99.00
2018-08-25T00:35:28.495Z,99.00
2018-08-25T00:37:56.102Z,99.20
2018-08-25T00:40:23.759Z,99.20
2018-08-25T00:42:51.445Z,99.20
2018-08-25T00:45:19.219Z,98.90
2018-08-25T00:47:46.973Z,99.00
2018-08-25T00:50:14.566Z,98.90
2018-08-25T00:52:42.214Z,99.80
2018-08-25T00:55:09.875Z,98.60
2018-08-25T00:57:37.617Z,97.80
2018-08-25T01:00:06.158Z,98.40
2018-08-25T01:02:33.809Z,98.70
2018-08-25T01:05:01.455Z,98.80
2018-08-25T01:07:29.146Z,98.90
2018-08-25T01:09:56.871Z,98.90
2018-08-25T01:12:24.498Z,99.20
2018-08-25T01:14:52.199Z,99.00
2018-08-25T01:17:19.833Z,98.60
2018-08-25T01:19:47.483Z,98.80
2018-08-25T01:22:15.115Z,98.80
2018-08-25T01:24:42.797Z,98.90
2018-08-25T01:27:10.491Z,98.80
2018-08-25T01:29:38.129Z,99.00
2018-08-25T01:32:05.807Z,99.40
2018-08-25T01:34:33.452Z,99.30
2018-08-25T01:37:01.088Z,99.50
2018-08-25T01:39:29.434Z,99.30
2018-08-25T01:41:57.062Z,99.20
2018-08-25T01:44:24.670Z,99.20
2018-08-25T01:46:52.278Z,99.30
2018-08-25T01:49:19.931Z,99.10
2018-08-25T01:51:47.570Z,99.20
2018-08-25T01:54:15.199Z,99.10
2018-08-25T01:56:42.931Z,99.30
2018-08-25T01:59:10.598Z,99.20
2018-08-25T02:01:38.230Z,99.00
2018-08-25T02:04:05.854Z,99.20
2018-08-25T02:06:33.491Z,99.20
2018-08-25T02:09:01.117Z,99.30
2018-08-25T02:11:28.726Z,99.60
2018-08-25T02:13:56.319Z,99.70
2018-08-25T02:16:23.998Z,99.70
2018-08-25T02:18:51.631Z,99.90
2018-08-25T02:21:19.329Z,99.60
2018-08-25T02:23:47.024Z,99.80
2018-08-25T02:26:14.654Z,99.90
2018-08-25T02:28:42.326Z,99.90
2018-08-25T02:31:09.979Z,99.70
2018-08-25T02:33:37.600Z,99.70
2018-08-25T02:36:05.331Z,99.80
2018-08-25T02:38:33.040Z,99.80
2018-08-25T02:41:00.624Z,99.90
2018-08-25T02:43:28.235Z,99.60
2018-08-25T02:45:55.975Z,99.90
2018-08-25T02:48:23.602Z,99.90
2018-08-25T02:50:51.202Z,99.60
2018-08-25T02:53:18.825Z,99.60
2018-08-25T02:55:46.435Z,99.60
2018-08-25T02:58:14.048Z,99.70
2018-08-25T03:00:41.653Z,99.60
2018-08-25T03:03:09.251Z,99.70
2018-08-25T03:05:36.871Z,99.40
2018-08-25T03:08:04.635Z,99.90
2018-08-25T03:10:32.242Z,99.60
2018-08-25T03:12:59.855Z,99.70
2018-08-25T03:15:27.485Z,99.60
2018-08-25T03:17:55.119Z,99.60
2018-08-25T03:20:22.733Z,99.60
2018-08-25T03:22:50.363Z,99.70
2018-08-25T03:25:18.003Z,99.40
2018-08-25T03:27:45.634Z,99.50
2018-08-25T03:30:13.259Z,99.60
2018-08-25T03:32:40.858Z,99.40
2018-08-25T03:35:08.491Z,99.40
2018-08-25T03:37:36.170Z,99.50
2018-08-25T03:40:03.848Z,99.50
2018-08-25T03:42:31.476Z,99.60
2018-08-25T03:44:59.106Z,99.50
2018-08-25T03:47:26.835Z,99.50
2018-08-25T03:49:54.459Z,99.30
2018-08-25T03:52:22.319Z,99.40
2018-08-25T03:54:50.003Z,99.20
2018-08-25T03:57:17.686Z,99.20
2018-08-25T03:59:45.307Z,99.00
2018-08-25T04:02:12.932Z,98.70
2018-08-25T04:04:40.562Z,98.60
2018-08-25T04:07:08.324Z,98.60
2018-08-25T04:09:35.937Z,98.80
2018-08-25T04:12:03.655Z,99.20
2018-08-25T04:14:31.303Z,99.30
2018-08-25T04:16:58.947Z,99.80
2018-08-25T04:19:26.607Z,99.60
2018-08-25T04:21:54.253Z,99.70
2018-08-25T04:24:21.942Z,99.70
2018-08-25T04:26:49.562Z,99.60
2018-08-25T04:29:17.195Z,99.40
2018-08-25T04:31:45.868Z,99.20
2018-08-25T04:34:13.478Z,99.00
2018-08-25T04:36:41.188Z,99.10
2018-08-25T04:39:10.256Z,99.20
2018-08-25T04:41:37.863Z,99.20
2018-08-25T04:44:05.514Z,99.10
2018-08-25T04:46:33.183Z,99.10
2018-08-25T04:49:00.806Z,98.80
2018-08-25T04:51:28.524Z,98.70
2018-08-25T04:53:56.207Z,98.80
2018-08-25T04:56:23.890Z,98.80
2018-08-25T04:58:51.587Z,98.50
2018-08-25T05:01:19.195Z,98.50
2018-08-25T05:03:46.908Z,98.50
2018-08-25T05:06:14.571Z,98.10
2018-08-25T05:08:42.213Z,98.40
2018-08-25T05:11:09.828Z,98.30
2018-08-25T05:13:37.480Z,98.10
2018-08-25T05:16:05.199Z,97.80
2018-08-25T05:18:32.849Z,97.90
2018-08-25T05:21:00.478Z,97.70
2018-08-25T05:23:28.134Z,97.80
2018-08-25T05:25:55.776Z,97.70
2018-08-25T05:28:23.418Z,97.20
2018-08-25T05:30:51.052Z,97.30
2018-08-25T05:33:18.655Z,97.10
2018-08-25T05:35:46.330Z,97.10
2018-08-25T05:38:14.082Z,97.40
2018-08-25T05:40:41.718Z,96.60
2018-08-25T05:43:09.334Z,96.60
2018-08-25T05:45:36.967Z,96.60
2018-08-25T05:48:04.598Z,96.60
2018-08-25T05:50:32.208Z,96.50
2018-08-25T05:52:59.970Z,96.30
2018-08-25T05:55:27.690Z,97.10
2018-08-25T05:57:55.347Z,96.60
2018-08-25T06:00:22.962Z,96.60
2018-08-25T06:02:50.661Z,96.60
2018-08-25T06:05:18.390Z,96.60
2018-08-25T06:07:46.038Z,96.40
2018-08-25T06:10:13.694Z,96.30
2018-08-25T06:12:41.339Z,96.70
2018-08-25T06:15:08.995Z,96.60
2018-08-25T06:17:36.680Z,96.60
2018-08-25T06:20:04.378Z,96.60
2018-08-25T06:22:32.010Z,96.70
2018-08-25T06:24:59.646Z,96.20
2018-08-25T06:27:27.304Z,96.20
2018-08-25T06:29:54.985Z,96.00
2018-08-25T06:32:22.649Z,96.00
2018-08-25T06:34:50.281Z,96.00
2018-08-25T06:37:17.919Z,95.90
2018-08-25T06:39:45.563Z,95.90
2018-08-25T06:42:13.223Z,95.90
2018-08-25T06:44:40.857Z,95.60
2018-08-25T06:47:08.486Z,95.50
2018-08-25T06:49:36.159Z,95.30
2018-08-25T06:52:03.822Z,95.70
2018-08-25T06:54:31.478Z,95.40
2018-08-25T06:56:59.129Z,95.20
2018-08-25T06:59:26.861Z,95.30
2018-08-25T07:01:54.462Z,95.20
2018-08-25T07:04:22.119Z,94.70
2018-08-25T07:06:49.775Z,94.90
2018-08-25T07:09:17.423Z,94.80
2018-08-25T07:11:45.176Z,94.50
2018-08-25T07:14:13.138Z,94.60
2018-08-25T07:16:40.902Z,94.90
2018-08-25T07:19:08.526Z,94.90
2018-08-25T07:21:36.276Z,94.80
2018-08-25T07:24:03.924Z,95.20
2018-08-25T07:26:31.563Z,95.20
2018-08-25T07:28:59.264Z,94.90
2018-08-25T07:31:26.882Z,94.70
2018-08-25T07:33:54.535Z,95.10
2018-08-25T07:36:22.190Z,95.10
2018-08-25T07:38:49.839Z,95.00
2018-08-25T07:41:17.464Z,95.00
2018-08-25T07:43:45.098Z,94.80
2018-08-25T07:46:12.748Z,95.10
2018-08-25T07:48:40.429Z,95.10
2018-08-25T07:51:08.199Z,95.60
2018-08-25T07:53:35.847Z,96.20
2018-08-25T07:56:03.485Z,96.00
2018-08-25T07:58:31.250Z,95.90
2018-08-25T08:00:58.831Z,95.50
2018-08-25T08:03:26.590Z,95.90
2018-08-25T08:05:54.247Z,95.30
2018-08-25T08:08:21.949Z,95.60
2018-08-25T08:10:49.650Z,96.00
2018-08-25T08:13:17.278Z,95.50
2018-08-25T08:15:44.990Z,95.10
2018-08-25T08:18:12.655Z,95.20
2018-08-25T08:20:40.278Z,95.00
2018-08-25T08:23:07.939Z,94.90
2018-08-25T08:25:35.550Z,94.50
2018-08-25T08:28:03.191Z,94.00
2018-08-25T08:30:30.844Z,94.00
2018-08-25T08:32:58.553Z,93.70
2018-08-25T08:35:26.157Z,93.30
2018-08-25T08:37:53.848Z,92.70
2018-08-25T08:40:22.294Z,91.30
2018-08-25T08:42:50.667Z,92.30
2018-08-25T08:45:18.386Z,91.30
2018-08-25T08:47:46.035Z,91.00
2018-08-25T08:50:13.692Z,90.50
2018-08-25T08:52:41.541Z,90.90
2018-08-25T08:55:09.242Z,89.90
2018-08-25T08:57:37.549Z,87.90
2018-08-25T09:00:05.391Z,88.70
2018-08-25T09:02:33.050Z,88.50
2018-08-25T09:05:00.883Z,86.10
2018-08-25T09:07:28.535Z,84.00
2018-08-25T09:09:56.541Z,84.10
2018-08-25T09:12:24.157Z,84.20
2018-08-25T09:14:51.794Z,84.40
2018-08-25T09:17:20.368Z,87.80
2018-08-25T09:19:48.018Z,86.50
2018-08-25T09:22:15.647Z,84.00
2018-08-25T09:24:43.337Z,84.40
2018-08-25T09:27:11.058Z,85.20
2018-08-25T09:29:38.723Z,86.60
2018-08-25T09:32:06.488Z,87.10
2018-08-25T09:34:34.163Z,87.30
2018-08-25T09:37:01.876Z,88.10
2018-08-25T09:39:29.822Z,88.70
2018-08-25T09:41:57.471Z,88.80
2018-08-25T09:44:26.166Z,88.90
2018-08-25T09:46:53.891Z,89.50
2018-08-25T09:49:21.549Z,88.60
2018-08-25T09:51:49.166Z,88.60
2018-08-25T09:54:17.382Z,90.20
2018-08-25T09:56:45.275Z,90.20
2018-08-25T09:59:12.963Z,90.20
2018-08-25T10:02:13.078Z,89.60
2018-08-25T10:04:40.875Z,92.00
2018-08-25T10:07:08.731Z,91.20
2018-08-25T10:09:36.321Z,91.50
2018-08-25T10:12:03.999Z,95.60
2018-08-25T10:14:31.603Z,94.50
2018-08-25T10:17:03.144Z,95.30
2018-08-25T10:19:30.839Z,94.20
2018-08-25T10:22:05.764Z,93.40
2018-08-25T10:24:33.832Z,93.40
2018-08-25T10:27:02.359Z,93.40
2018-08-25T10:29:30.452Z,92.70
2018-08-25T10:31:59.597Z,93.00
2018-08-25T10:34:27.581Z,93.00
2018-08-25T10:36:56.910Z,93.80
2018-08-25T10:39:31.326Z,93.90
2018-08-25T10:41:59.656Z,94.40
2018-08-25T10:44:27.298Z,95.00
2018-08-25T10:46:54.966Z,96.80
2018-08-25T10:49:22.604Z,95.30
2018-08-25T10:51:50.304Z,94.00
2018-08-25T10:54:18.671Z,94.80
2018-08-25T10:56:47.129Z,94.40
2018-08-25T10:59:15.487Z,94.80
2018-08-25T11:01:43.134Z,95.70
2018-08-25T11:04:10.783Z,96.10
2018-08-25T11:06:40.026Z,95.90
2018-08-25T11:09:10.124Z,95.50
2018-08-25T11:11:37.787Z,95.20
2018-08-25T11:14:06.466Z,96.30
2018-08-25T11:16:34.149Z,96.20
2018-08-25T11:19:01.764Z,99.90
2018-08-25T11:21:29.447Z,99.60
2018-08-25T11:23:57.157Z,99.90
2018-08-25T11:26:24.795Z,99.90
2018-08-25T11:28:52.572Z,97.40
2018-08-25T11:31:20.258Z,96.80
2018-08-25T11:33:47.898Z,96.90
2018-08-25T11:36:15.583Z,95.80
2018-08-25T11:38:43.243Z,95.40
2018-08-25T11:41:10.866Z,95.70
2018-08-25T11:43:38.478Z,94.90
2018-08-25T11:46:06.151Z,95.80
2018-08-25T11:48:33.878Z,96.00
2018-08-25T11:51:01.569Z,96.20
2018-08-25T11:53:29.186Z,95.70
2018-08-25T11:55:56.999Z,95.50
2018-08-25T11:58:24.631Z,94.90
2018-08-25T12:00:52.314Z,95.70
2018-08-25T12:03:19.949Z,97.10
2018-08-25T12:05:48.081Z,98.20
2018-08-25T12:08:16.302Z,98.60
2018-08-25T12:10:43.942Z,98.30
2018-08-25T12:13:11.591Z,99.50
2018-08-25T12:15:39.266Z,98.50
2018-08-25T12:18:07.222Z,98.20
2018-08-25T12:20:34.946Z,97.20
2018-08-25T12:23:02.586Z,98.10
2018-08-25T12:25:30.257Z,97.40
2018-08-25T12:27:57.879Z,97.50
2018-08-25T12:30:25.544Z,97.90
2018-08-25T12:32:53.331Z,98.00
2018-08-25T12:35:22.391Z,98.70
2018-08-25T12:37:50.333Z,98.50
2018-08-25T12:40:18.166Z,98.80
2018-08-25T12:42:46.310Z,98.80
2018-08-25T12:45:14.121Z,98.30
2018-08-25T12:47:42.282Z,97.90
2018-08-25T12:50:10.286Z,98.90
2018-08-25T12:52:38.553Z,98.90
2018-08-25T12:55:06.344Z,97.30
2018-08-25T12:57:34.011Z,98.20
2018-08-25T13:00:02.089Z,97.90
2018-08-25T13:02:29.714Z,97.20
2018-08-25T13:04:57.345Z,95.70
2018-08-25T13:07:25.051Z,96.60
2018-08-25T13:09:52.639Z,95.90
2018-08-25T13:12:20.312Z,95.10
2018-08-25T13:14:48.072Z,95.40
2018-08-25T13:17:15.817Z,94.50
2018-08-25T13:19:43.529Z,94.20
2018-08-25T13:22:11.154Z,94.60
2018-08-25T13:24:38.822Z,93.60
2018-08-25T13:27:06.481Z,93.70
2018-08-25T13:29:34.102Z,93.70
2018-08-25T13:32:01.849Z,93.50
2018-08-25T13:34:29.503Z,94.70
2018-08-25T13:36:57.142Z,93.80
2018-08-25T13:39:24.849Z,93.80
2018-08-25T13:41:52.602Z,93.70
2018-08-25T13:44:20.308Z,93.50
2018-08-25T13:46:47.895Z,92.70
2018-08-25T13:49:22.198Z,92.80
2018-08-25T13:51:49.928Z,93.90
2018-08-25T13:54:17.593Z,93.70
2018-08-25T13:56:45.255Z,93.30
2018-08-25T13:59:12.937Z,93.80
2018-08-25T14:01:40.686Z,94.10
2018-08-25T14:04:08.338Z,94.80
2018-08-25T14:06:36.170Z,94.90
2018-08-25T14:09:05.607Z,94.90
2018-08-25T14:11:33.374Z,94.50
2018-08-25T14:14:01.048Z,94.50
2018-08-25T14:16:28.744Z,94.90
2018-08-25T14:18:56.370Z,95.70
2018-08-25T14:21:24.080Z,95.80
2018-08-25T14:23:51.780Z,96.00
2018-08-25T14:26:19.430Z,96.40
2018-08-25T14:28:47.375Z,96.90
2018-08-25T14:31:15.100Z,97.00
2018-08-25T14:33:42.883Z,97.40
2018-08-25T14:36:10.605Z,97.40
2018-08-25T14:38:38.350Z,96.20
2018-08-25T14:41:06.039Z,95.60
2018-08-25T14:43:33.989Z,95.50
2018-08-25T14:46:01.671Z,95.40
2018-08-25T14:48:29.473Z,95.10
2018-08-25T14:50:58.838Z,94.70
2018-08-25T14:53:26.530Z,94.30
2018-08-25T14:55:54.506Z,94.20
2018-08-25T14:58:22.183Z,93.50
2018-08-25T15:00:49.944Z,93.30
2018-08-25T15:03:17.526Z,92.70
2018-08-25T15:05:45.225Z,92.60
2018-08-25T15:08:12.856Z,91.90
2018-08-25T15:10:40.539Z,91.40
2018-08-25T15:13:08.230Z,91.80
2018-08-25T15:15:35.890Z,91.90
2018-08-25T15:18:04.245Z,90.50
2018-08-25T15:20:31.918Z,89.00
2018-08-25T15:22:59.610Z,90.00
2018-08-25T15:25:27.355Z,88.50
2018-08-25T15:27:55.008Z,88.50
2018-08-25T15:30:22.659Z,88.20
2018-08-25T15:32:50.299Z,87.90
2018-08-25T15:35:17.940Z,90.00
2018-08-25T15:37:45.592Z,90.40
2018-08-25T15:40:13.241Z,90.40
2018-08-25T15:42:40.927Z,90.90
2018-08-25T15:45:08.600Z,89.90
2018-08-25T15:47:36.223Z,89.90
2018-08-25T15:50:03.960Z,90.00
2018-08-25T15:52:31.762Z,88.20
2018-08-25T15:55:00.454Z,96.10
2018-08-25T15:57:38.725Z,93.10
2018-08-25T16:00:06.795Z,93.10
2018-08-25T16:02:34.815Z,99.80
2018-08-25T16:05:02.482Z,95.70
2018-08-25T16:07:30.294Z,95.70
2018-08-25T16:09:57.957Z,93.80
2018-08-25T16:12:25.592Z,92.50
2018-08-25T16:14:53.219Z,92.30
2018-08-25T16:17:20.929Z,92.10
2018-08-25T16:19:48.655Z,90.80
2018-08-25T16:22:16.246Z,89.10
2018-08-25T16:24:43.876Z,82.90
2018-08-25T16:27:11.528Z,86.50
2018-08-25T16:29:39.179Z,89.10
2018-08-25T16:32:06.826Z,87.00
2018-08-25T16:34:34.483Z,83.70
2018-08-25T16:37:02.175Z,83.80
2018-08-25T16:39:30.008Z,83.00
2018-08-25T16:41:57.638Z,83.50
2018-08-25T16:44:25.263Z,83.20
2018-08-25T16:46:52.975Z,83.30
2018-08-25T16:49:20.659Z,79.30
2018-08-25T16:51:48.302Z,79.00
2018-08-25T16:54:15.948Z,80.00
2018-08-25T16:56:43.622Z,80.10
2018-08-25T16:59:11.277Z,80.40
2018-08-25T17:01:38.917Z,80.00
2018-08-25T17:04:06.948Z,80.90
2018-08-25T17:06:34.601Z,81.50
2018-08-25T17:09:04.431Z,88.20
2018-08-25T17:11:32.903Z,88.40
2018-08-25T17:14:00.612Z,90.00
2018-08-25T17:16:28.808Z,90.00
2018-08-25T17:18:56.466Z,85.40
2018-08-25T17:21:24.118Z,86.30
2018-08-25T17:23:51.756Z,86.10
2018-08-25T17:26:19.442Z,85.80
2018-08-25T17:28:47.170Z,88.60
2018-08-25T17:31:14.924Z,87.90
2018-08-25T17:33:42.550Z,89.20
2018-08-25T17:36:10.258Z,87.80
2018-08-25T17:38:37.964Z,88.50
2018-08-25T17:41:05.645Z,87.90
2018-08-25T17:43:33.306Z,88.20
2018-08-25T17:46:00.947Z,88.50
2018-08-25T17:48:28.586Z,88.80
2018-08-25T17:50:56.276Z,89.00
2018-08-25T17:53:23.932Z,94.60
2018-08-25T17:55:51.561Z,91.00
2018-08-25T17:58:19.218Z,92.00
2018-08-25T18:00:46.886Z,90.90
2018-08-25T18:03:14.691Z,91.20
2018-08-25T18:05:42.416Z,91.80
2018-08-25T18:08:10.063Z,91.50
2018-08-25T18:10:37.739Z,92.20
2018-08-25T18:13:05.423Z,91.00
2018-08-25T18:15:33.162Z,91.30
2018-08-25T18:18:00.814Z,93.20
2018-08-25T18:20:28.499Z,92.20
2018-08-25T18:22:56.191Z,91.90
2018-08-25T18:25:24.059Z,91.70
2018-08-25T18:27:51.746Z,91.40
2018-08-25T18:30:19.493Z,91.40
2018-08-25T18:32:47.068Z,92.40
2018-08-25T18:35:14.669Z,92.20
2018-08-25T18:37:42.282Z,91.60
2018-08-25T18:40:09.918Z,91.20
2018-08-25T18:42:37.658Z,91.10
2018-08-25T18:45:05.441Z,90.80
2018-08-25T18:47:33.187Z,91.40
2018-08-25T18:50:00.804Z,91.50
2018-08-25T18:52:28.499Z,90.90
2018-08-25T18:54:56.269Z,91.60
2018-08-25T18:57:23.822Z,91.90
2018-08-25T18:59:51.448Z,91.20
2018-08-25T19:02:19.157Z,91.50
2018-08-25T19:04:46.674Z,91.20
2018-08-25T19:07:14.319Z,91.40
2018-08-25T19:09:42.047Z,91.20
2018-08-25T19:12:09.670Z,91.40
2018-08-25T19:14:37.301Z,91.50
2018-08-25T19:17:04.954Z,91.10
2018-08-25T19:19:32.646Z,91.40
2018-08-25T19:22:00.258Z,90.50
2018-08-25T19:24:28.046Z,91.80
2018-08-25T19:26:55.568Z,92.00
2018-08-25T19:29:23.208Z,91.70
2018-08-25T19:31:50.826Z,91.60
2018-08-25T19:34:18.463Z,91.90
2018-08-25T19:36:46.105Z,92.40
2018-08-25T19:39:13.686Z,91.50
2018-08-25T19:41:41.343Z,92.20
2018-08-25T19:44:09.055Z,95.20
2018-08-25T19:46:36.714Z,93.20
2018-08-25T19:49:04.380Z,93.10
2018-08-25T19:51:32.034Z,93.30
2018-08-25T19:53:59.752Z,94.10
2018-08-25T19:56:27.376Z,94.40
2018-08-25T19:58:55.002Z,95.60
2018-08-25T20:01:22.736Z,96.00
2018-08-25T20:03:50.389Z,96.80
2018-08-25T20:06:18.023Z,96.70
2018-08-25T20:08:45.639Z,96.30
2018-08-25T20:11:13.251Z,96.70
2018-08-25T20:13:40.898Z,97.10
2018-08-25T20:16:08.555Z,97.00
2018-08-25T20:18:36.210Z,97.70
2018-08-25T20:21:04.063Z,97.70
2018-08-25T20:23:31.659Z,98.60
2018-08-25T20:25:59.354Z,99.60
2018-08-25T20:28:27.029Z,98.50
2018-08-25T20:30:54.696Z,97.50
2018-08-25T20:33:22.309Z,98.00
2018-08-25T20:35:50.048Z,98.00
2018-08-25T20:38:17.659Z,98.60
2018-08-25T20:40:45.316Z,98.20
2018-08-25T20:43:12.943Z,97.90
2018-08-25T20:45:40.699Z,98.30
2018-08-25T20:48:08.280Z,98.60
2018-08-25T20:50:35.982Z,98.80
2018-08-25T20:53:03.644Z,98.60
2018-08-25T20:55:31.247Z,98.70
2018-08-25T20:57:58.878Z,99.20
2018-08-25T21:00:26.508Z,99.80
2018-08-25T21:02:54.171Z,99.60
2018-08-25T21:05:21.830Z,99.40
2018-08-25T21:07:49.478Z,99.40
2018-08-25T21:10:17.110Z,99.50
2018-08-25T21:12:44.735Z,99.50
2018-08-25T21:15:12.378Z,99.90
2018-08-25T21:17:40.046Z,99.90
2018-08-25T21:20:07.741Z,99.70
2018-08-25T21:22:35.386Z,99.70
2018-08-25T21:25:03.070Z,99.90
2018-08-25T21:27:30.711Z,99.90
2018-08-25T21:29:58.354Z,99.90
2018-08-25T21:32:26.047Z,99.90
2018-08-25T21:34:53.731Z,99.90
2018-08-25T21:37:21.887Z,99.90
2018-08-25T21:39:50.122Z,99.90
2018-08-25T21:42:24.376Z,99.90
2018-08-25T21:44:51.981Z,99.90
2018-08-25T21:47:19.628Z,99.90
2018-08-25T21:49:47.260Z,99.90
2018-08-25T21:52:14.918Z,99.90
2018-08-25T21:54:42.594Z,99.90
2018-08-25T21:57:10.599Z,99.90
2018-08-25T21:59:38.226Z,99.90
2018-08-25T22:02:05.907Z,99.90
2018-08-25T22:04:33.523Z,99.90
2018-08-25T22:07:01.171Z,99.90
2018-08-25T22:09:28.799Z,99.90
2018-08-25T22:11:56.454Z,99.90
2018-08-25T22:14:24.149Z,99.90
2018-08-25T22:16:51.809Z,99.90
2018-08-25T22:19:19.681Z,99.90
2018-08-25T22:21:47.384Z,99.90
2018-08-25T22:24:15.351Z,99.90
2018-08-25T22:26:43.317Z,99.90
2018-08-25T22:29:11.061Z,99.90
2018-08-25T22:31:38.683Z,99.90
2018-08-25T22:34:06.360Z,99.90
2018-08-25T22:36:34.042Z,99.90
2018-08-25T22:39:01.713Z,99.90
2018-08-25T22:41:29.485Z,99.90
2018-08-25T22:43:57.077Z,99.90
2018-08-25T22:46:24.922Z,99.90
2018-08-25T22:48:52.571Z,99.90
2018-08-25T22:51:20.528Z,99.90
2018-08-25T22:53:48.124Z,99.90
2018-08-25T22:56:15.764Z,99.90
2018-08-25T22:58:43.411Z,99.90
2018-08-25T23:01:11.085Z,99.90
2018-08-25T23:03:38.983Z,99.90
2018-08-25T23:06:06.634Z,99.90
2018-08-25T23:08:34.702Z,99.90
2018-08-25T23:11:02.370Z,99.70
2018-08-25T23:13:30.060Z,99.80
2018-08-25T23:15:57.799Z,99.70
2018-08-25T23:18:25.453Z,99.60
2018-08-25T23:20:53.150Z,99.70
2018-08-25T23:23:20.845Z,99.90
2018-08-25T23:25:48.483Z,99.90
2018-08-25T23:28:16.151Z,99.90
2018-08-25T23:30:43.829Z,99.90
2018-08-25T23:33:12.015Z,99.80
2018-08-25T23:35:39.703Z,99.90
2018-08-25T23:38:07.390Z,99.90
2018-08-25T23:40:35.050Z,99.90
2018-08-25T23:43:02.887Z,99.90
2018-08-25T23:45:30.538Z,99.90
2018-08-25T23:47:58.202Z,99.90
2018-08-25T23:50:25.860Z,99.60
2018-08-25T23:52:53.523Z,99.90
2018-08-25T23:55:21.182Z,99.70
2018-08-25T23:57:49.071Z,99.70
